sensor_id;sensor_type;location;lat;lon;timestamp;temperature;humidity
9371;DHT22;4725;48.384;8.984;2023-02-25T00:01:59;3.90;99.90
9371;DHT22;4725;48.384;8.984;2023-02-25T00:04:26;3.80;99.90
9371;DHT22;4725;48.384;8.984;2023-02-25T00:06:55;3.80;99.90
9371;DHT22;4725;48.384;8.984;2023-02-25T00:11:49;3.80;99.90
9371;DHT22;4725;48.384;8.984;2023-02-25T00:14:16;3.80;99.90
9371;DHT22;4725;48.384;8.984;2023-02-25T00:16:43;3.80;99.90
9371;DHT22;4725;48.384;8.984;2023-02-25T00:19:11;3.80;99.90
9371;DHT22;4725;48.384;8.984;2023-02-25T00:21:37;3.80;99.90
9371;DHT22;4725;48.384;8.984;2023-02-25T00:24:06;3.80;99.90
9371;DHT22;4725;48.384;8.984;2023-02-25T00:26:33;3.80;99.90
9371;DHT22;4725;48.384;8.984;2023-02-25T00:29:00;5.40;99.90
9371;DHT22;4725;48.384;8.984;2023-02-25T00:31:27;3.70;99.90
9371;DHT22;4725;48.384;8.984;2023-02-25T00:33:54;5.00;99.90
9371;DHT22;4725;48.384;8.984;2023-02-25T00:36:22;3.70;99.90
9371;DHT22;4725;48.384;8.984;2023-02-25T00:38:51;3.70;99.90
9371;DHT22;4725;48.384;8.984;2023-02-25T00:41:22;3.60;99.90
9371;DHT22;4725;48.384;8.984;2023-02-25T00:43:51;3.50;99.90
9371;DHT22;4725;48.384;8.984;2023-02-25T00:46:19;3.30;99.90
9371;DHT22;4725;48.384;8.984;2023-02-25T00:48:46;3.20;99.90
9371;DHT22;4725;48.384;8.984;2023-02-25T00:51:15;3.20;99.90
9371;DHT22;4725;48.384;8.984;2023-02-25T00:53:43;3.20;99.90
9371;DHT22;4725;48.384;8.984;2023-02-25T00:56:13;3.20;99.90
9371;DHT22;4725;48.384;8.984;2023-02-25T00:58:43;3.10;99.90
9371;DHT22;4725;48.384;8.984;2023-02-25T01:01:18;3.10;99.90
9371;DHT22;4725;48.384;8.984;2023-02-25T01:03:45;3.10;99.90
9371;DHT22;4725;48.384;8.984;2023-02-25T01:06:12;3.00;99.90
9371;DHT22;4725;48.384;8.984;2023-02-25T01:08:39;3.00;99.90
9371;DHT22;4725;48.384;8.984;2023-02-25T01:11:11;3.00;99.90
9371;DHT22;4725;48.384;8.984;2023-02-25T01:13:42;3.00;99.90
9371;DHT22;4725;48.384;8.984;2023-02-25T01:16:10;3.00;99.90
9371;DHT22;4725;48.384;8.984;2023-02-25T01:18:37;3.10;99.90
9371;DHT22;4725;48.384;8.984;2023-02-25T01:21:05;2.90;99.90
9371;DHT22;4725;48.384;8.984;2023-02-25T01:23:32;2.70;99.90
9371;DHT22;4725;48.384;8.984;2023-02-25T01:26:01;2.70;99.90
9371;DHT22;4725;48.384;8.984;2023-02-25T01:28:28;2.60;99.90
9371;DHT22;4725;48.384;8.984;2023-02-25T01:30:56;2.50;99.90
9371;DHT22;4725;48.384;8.984;2023-02-25T01:33:23;2.40;99.90
9371;DHT22;4725;48.384;8.984;2023-02-25T01:35:50;2.40;99.90
9371;DHT22;4725;48.384;8.984;2023-02-25T01:38:17;2.40;99.90
9371;DHT22;4725;48.384;8.984;2023-02-25T01:40:44;2.40;99.90
9371;DHT22;4725;48.384;8.984;2023-02-25T01:43:13;2.40;99.90
9371;DHT22;4725;48.384;8.984;2023-02-25T01:45:42;2.30;99.90
9371;DHT22;4725;48.384;8.984;2023-02-25T01:48:14;2.20;99.90
9371;DHT22;4725;48.384;8.984;2023-02-25T01:50:47;2.20;99.90
9371;DHT22;4725;48.384;8.984;2023-02-25T01:53:18;2.30;99.90
9371;DHT22;4725;48.384;8.984;2023-02-25T01:55:46;2.30;99.90
9371;DHT22;4725;48.384;8.984;2023-02-25T01:58:14;2.30;99.90
9371;DHT22;4725;48.384;8.984;2023-02-25T02:00:41;2.30;99.90
9371;DHT22;4725;48.384;8.984;2023-02-25T02:03:09;2.20;99.90
9371;DHT22;4725;48.384;8.984;2023-02-25T02:05:53;2.30;99.90
9371;DHT22;4725;48.384;8.984;2023-02-25T02:08:22;2.30;99.90
9371;DHT22;4725;48.384;8.984;2023-02-25T02:10:49;2.40;99.90
9371;DHT22;4725;48.384;8.984;2023-02-25T02:13:16;2.40;99.90
9371;DHT22;4725;48.384;8.984;2023-02-25T02:15:48;2.40;99.90
9371;DHT22;4725;48.384;8.984;2023-02-25T02:18:15;2.50;99.90
9371;DHT22;4725;48.384;8.984;2023-02-25T02:20:53;2.60;99.90
9371;DHT22;4725;48.384;8.984;2023-02-25T02:23:38;2.50;99.90
9371;DHT22;4725;48.384;8.984;2023-02-25T02:26:39;2.50;99.90
9371;DHT22;4725;48.384;8.984;2023-02-25T02:29:27;2.60;99.90
9371;DHT22;4725;48.384;8.984;2023-02-25T02:32:07;2.60;99.90
9371;DHT22;4725;48.384;8.984;2023-02-25T02:34:41;2.60;99.90
9371;DHT22;4725;48.384;8.984;2023-02-25T02:37:22;2.60;99.90
9371;DHT22;4725;48.384;8.984;2023-02-25T02:39:54;2.60;99.90
9371;DHT22;4725;48.384;8.984;2023-02-25T02:42:33;2.60;99.90
9371;DHT22;4725;48.384;8.984;2023-02-25T02:45:08;2.60;99.90
9371;DHT22;4725;48.384;8.984;2023-02-25T02:47:41;2.60;99.90
9371;DHT22;4725;48.384;8.984;2023-02-25T02:50:12;2.60;99.90
9371;DHT22;4725;48.384;8.984;2023-02-25T02:52:43;2.50;99.90
9371;DHT22;4725;48.384;8.984;2023-02-25T02:55:17;2.50;99.90
9371;DHT22;4725;48.384;8.984;2023-02-25T02:57:47;2.40;99.90
9371;DHT22;4725;48.384;8.984;2023-02-25T03:00:20;2.30;99.90
9371;DHT22;4725;48.384;8.984;2023-02-25T03:02:56;2.30;99.90
9371;DHT22;4725;48.384;8.984;2023-02-25T03:05:28;2.40;99.90
9371;DHT22;4725;48.384;8.984;2023-02-25T03:08:00;2.40;99.90
9371;DHT22;4725;48.384;8.984;2023-02-25T03:10:31;2.30;99.90
9371;DHT22;4725;48.384;8.984;2023-02-25T03:12:58;2.40;99.90
9371;DHT22;4725;48.384;8.984;2023-02-25T03:15:26;2.30;99.90
9371;DHT22;4725;48.384;8.984;2023-02-25T03:17:59;2.30;99.90
9371;DHT22;4725;48.384;8.984;2023-02-25T03:20:31;2.30;99.90
9371;DHT22;4725;48.384;8.984;2023-02-25T03:23:03;2.20;99.90
9371;DHT22;4725;48.384;8.984;2023-02-25T03:25:35;2.20;99.90
9371;DHT22;4725;48.384;8.984;2023-02-25T03:28:21;2.20;99.90
9371;DHT22;4725;48.384;8.984;2023-02-25T03:30:55;2.20;99.90
9371;DHT22;4725;48.384;8.984;2023-02-25T03:33:29;2.20;99.90
9371;DHT22;4725;48.384;8.984;2023-02-25T03:36:02;2.10;99.90
9371;DHT22;4725;48.384;8.984;2023-02-25T03:38:32;2.10;99.90
9371;DHT22;4725;48.384;8.984;2023-02-25T03:41:03;2.00;99.90
9371;DHT22;4725;48.384;8.984;2023-02-25T03:43:35;2.00;99.90
9371;DHT22;4725;48.384;8.984;2023-02-25T03:46:04;2.10;99.90
9371;DHT22;4725;48.384;8.984;2023-02-25T03:48:34;2.00;99.90
9371;DHT22;4725;48.384;8.984;2023-02-25T03:51:04;2.00;99.90
9371;DHT22;4725;48.384;8.984;2023-02-25T03:53:32;2.00;99.90
9371;DHT22;4725;48.384;8.984;2023-02-25T03:56:04;2.00;99.90
9371;DHT22;4725;48.384;8.984;2023-02-25T03:58:31;2.10;99.90
9371;DHT22;4725;48.384;8.984;2023-02-25T04:01:02;2.10;99.90
9371;DHT22;4725;48.384;8.984;2023-02-25T04:03:29;2.00;99.90
9371;DHT22;4725;48.384;8.984;2023-02-25T04:05:58;2.00;99.90
9371;DHT22;4725;48.384;8.984;2023-02-25T04:08:25;2.10;99.90
9371;DHT22;4725;48.384;8.984;2023-02-25T04:10:52;2.00;99.90
9371;DHT22;4725;48.384;8.984;2023-02-25T04:13:19;2.10;99.90
9371;DHT22;4725;48.384;8.984;2023-02-25T04:15:46;2.00;99.90
9371;DHT22;4725;48.384;8.984;2023-02-25T04:18:14;2.00;99.90
9371;DHT22;4725;48.384;8.984;2023-02-25T04:20:41;2.00;99.90
9371;DHT22;4725;48.384;8.984;2023-02-25T04:23:12;2.00;99.90
9371;DHT22;4725;48.384;8.984;2023-02-25T04:25:40;1.90;99.90
9371;DHT22;4725;48.384;8.984;2023-02-25T04:28:07;1.90;99.90
9371;DHT22;4725;48.384;8.984;2023-02-25T04:33:02;1.90;99.90
9371;DHT22;4725;48.384;8.984;2023-02-25T04:35:29;1.90;99.90
9371;DHT22;4725;48.384;8.984;2023-02-25T04:37:56;1.90;99.90
9371;DHT22;4725;48.384;8.984;2023-02-25T04:40:24;1.80;99.90
9371;DHT22;4725;48.384;8.984;2023-02-25T04:42:52;1.80;99.90
9371;DHT22;4725;48.384;8.984;2023-02-25T04:45:19;1.70;99.90
9371;DHT22;4725;48.384;8.984;2023-02-25T04:47:51;1.70;99.90
9371;DHT22;4725;48.384;8.984;2023-02-25T04:50:19;1.70;99.90
9371;DHT22;4725;48.384;8.984;2023-02-25T04:52:46;1.70;99.90
9371;DHT22;4725;48.384;8.984;2023-02-25T04:57:42;1.70;99.90
9371;DHT22;4725;48.384;8.984;2023-02-25T05:00:13;1.90;99.90
9371;DHT22;4725;48.384;8.984;2023-02-25T05:02:43;1.90;99.90
9371;DHT22;4725;48.384;8.984;2023-02-25T05:05:10;2.00;99.90
9371;DHT22;4725;48.384;8.984;2023-02-25T05:07:37;1.90;99.90
9371;DHT22;4725;48.384;8.984;2023-02-25T05:10:05;1.90;99.90
9371;DHT22;4725;48.384;8.984;2023-02-25T05:12:32;2.00;99.90
9371;DHT22;4725;48.384;8.984;2023-02-25T05:15:00;1.90;99.90
9371;DHT22;4725;48.384;8.984;2023-02-25T05:17:29;1.90;99.90
9371;DHT22;4725;48.384;8.984;2023-02-25T05:19:56;2.00;99.90
9371;DHT22;4725;48.384;8.984;2023-02-25T05:22:24;2.00;99.90
9371;DHT22;4725;48.384;8.984;2023-02-25T05:24:51;2.10;99.90
9371;DHT22;4725;48.384;8.984;2023-02-25T05:27:18;2.10;99.90
9371;DHT22;4725;48.384;8.984;2023-02-25T05:29:45;2.20;99.90
9371;DHT22;4725;48.384;8.984;2023-02-25T05:32:13;2.10;99.90
9371;DHT22;4725;48.384;8.984;2023-02-25T05:34:40;2.20;99.90
9371;DHT22;4725;48.384;8.984;2023-02-25T05:37:07;2.20;99.90
9371;DHT22;4725;48.384;8.984;2023-02-25T05:39:35;2.20;99.90
9371;DHT22;4725;48.384;8.984;2023-02-25T05:42:02;2.20;99.90
9371;DHT22;4725;48.384;8.984;2023-02-25T05:44:29;2.10;99.90
9371;DHT22;4725;48.384;8.984;2023-02-25T05:46:56;2.00;99.90
9371;DHT22;4725;48.384;8.984;2023-02-25T05:49:24;2.00;99.90
9371;DHT22;4725;48.384;8.984;2023-02-25T05:51:51;2.00;99.90
9371;DHT22;4725;48.384;8.984;2023-02-25T05:54:18;1.90;99.90
9371;DHT22;4725;48.384;8.984;2023-02-25T05:56:45;1.90;99.90
9371;DHT22;4725;48.384;8.984;2023-02-25T05:59:12;3.70;99.90
9371;DHT22;4725;48.384;8.984;2023-02-25T06:01:38;1.80;99.90
9371;DHT22;4725;48.384;8.984;2023-02-25T06:04:06;1.80;99.90
9371;DHT22;4725;48.384;8.984;2023-02-25T06:06:35;1.80;99.90
9371;DHT22;4725;48.384;8.984;2023-02-25T06:09:03;1.80;99.90
9371;DHT22;4725;48.384;8.984;2023-02-25T06:13:59;1.70;99.90
9371;DHT22;4725;48.384;8.984;2023-02-25T06:16:26;1.60;99.90
9371;DHT22;4725;48.384;8.984;2023-02-25T06:18:56;1.60;99.90
9371;DHT22;4725;48.384;8.984;2023-02-25T06:21:24;1.50;99.90
9371;DHT22;4725;48.384;8.984;2023-02-25T06:23:52;1.60;99.90
9371;DHT22;4725;48.384;8.984;2023-02-25T06:26:19;1.50;99.90
9371;DHT22;4725;48.384;8.984;2023-02-25T06:28:46;1.50;99.90
9371;DHT22;4725;48.384;8.984;2023-02-25T06:31:16;1.50;99.90
9371;DHT22;4725;48.384;8.984;2023-02-25T06:33:43;1.40;99.90
9371;DHT22;4725;48.384;8.984;2023-02-25T06:36:11;1.50;99.90
9371;DHT22;4725;48.384;8.984;2023-02-25T06:38:40;1.50;99.90
9371;DHT22;4725;48.384;8.984;2023-02-25T06:41:12;1.70;99.90
9371;DHT22;4725;48.384;8.984;2023-02-25T06:43:40;1.50;99.90
9371;DHT22;4725;48.384;8.984;2023-02-25T06:46:09;1.50;99.90
9371;DHT22;4725;48.384;8.984;2023-02-25T06:48:36;1.40;99.90
9371;DHT22;4725;48.384;8.984;2023-02-25T06:51:04;1.30;99.90
9371;DHT22;4725;48.384;8.984;2023-02-25T06:53:33;1.40;99.90
9371;DHT22;4725;48.384;8.984;2023-02-25T06:56:00;1.40;99.90
9371;DHT22;4725;48.384;8.984;2023-02-25T06:58:29;1.40;99.90
9371;DHT22;4725;48.384;8.984;2023-02-25T07:00:56;1.30;99.90
9371;DHT22;4725;48.384;8.984;2023-02-25T07:03:24;1.30;99.90
9371;DHT22;4725;48.384;8.984;2023-02-25T07:05:52;1.30;99.90
9371;DHT22;4725;48.384;8.984;2023-02-25T07:08:20;1.30;99.90
9371;DHT22;4725;48.384;8.984;2023-02-25T07:10:47;1.30;99.90
9371;DHT22;4725;48.384;8.984;2023-02-25T07:13:14;1.30;99.90
9371;DHT22;4725;48.384;8.984;2023-02-25T07:15:43;1.40;99.90
9371;DHT22;4725;48.384;8.984;2023-02-25T07:20:37;1.60;99.90
9371;DHT22;4725;48.384;8.984;2023-02-25T07:23:05;1.60;99.90
9371;DHT22;4725;48.384;8.984;2023-02-25T07:25:32;1.60;99.90
9371;DHT22;4725;48.384;8.984;2023-02-25T07:27:59;1.60;99.90
9371;DHT22;4725;48.384;8.984;2023-02-25T07:30:25;1.80;99.90
9371;DHT22;4725;48.384;8.984;2023-02-25T07:32:54;1.80;99.90
9371;DHT22;4725;48.384;8.984;2023-02-25T07:35:21;1.80;99.90
9371;DHT22;4725;48.384;8.984;2023-02-25T07:37:48;1.90;99.90
9371;DHT22;4725;48.384;8.984;2023-02-25T07:40:15;2.10;99.90
9371;DHT22;4725;48.384;8.984;2023-02-25T07:42:42;2.00;99.90
9371;DHT22;4725;48.384;8.984;2023-02-25T07:45:10;2.10;99.90
9371;DHT22;4725;48.384;8.984;2023-02-25T07:47:37;2.10;99.90
9371;DHT22;4725;48.384;8.984;2023-02-25T07:50:07;2.00;99.90
9371;DHT22;4725;48.384;8.984;2023-02-25T07:52:35;2.00;99.90
9371;DHT22;4725;48.384;8.984;2023-02-25T07:55:02;1.90;99.90
9371;DHT22;4725;48.384;8.984;2023-02-25T07:57:29;2.00;99.90
9371;DHT22;4725;48.384;8.984;2023-02-25T07:59:56;2.00;99.90
9371;DHT22;4725;48.384;8.984;2023-02-25T08:02:24;2.10;99.90
9371;DHT22;4725;48.384;8.984;2023-02-25T08:04:51;2.10;99.90
9371;DHT22;4725;48.384;8.984;2023-02-25T08:07:19;2.00;99.90
9371;DHT22;4725;48.384;8.984;2023-02-25T08:09:46;2.20;99.90
9371;DHT22;4725;48.384;8.984;2023-02-25T08:12:13;2.20;99.90
9371;DHT22;4725;48.384;8.984;2023-02-25T08:14:40;2.30;99.90
9371;DHT22;4725;48.384;8.984;2023-02-25T08:17:07;2.30;99.90
9371;DHT22;4725;48.384;8.984;2023-02-25T08:19:33;2.30;99.90
9371;DHT22;4725;48.384;8.984;2023-02-25T08:22:00;2.30;99.90
9371;DHT22;4725;48.384;8.984;2023-02-25T08:24:30;0.30;99.90
9371;DHT22;4725;48.384;8.984;2023-02-25T08:26:57;2.40;99.90
9371;DHT22;4725;48.384;8.984;2023-02-25T08:29:24;2.50;99.90
9371;DHT22;4725;48.384;8.984;2023-02-25T08:31:51;2.50;99.90
9371;DHT22;4725;48.384;8.984;2023-02-25T08:36:46;2.40;99.90
9371;DHT22;4725;48.384;8.984;2023-02-25T08:39:12;2.30;99.90
9371;DHT22;4725;48.384;8.984;2023-02-25T08:41:41;2.20;99.90
9371;DHT22;4725;48.384;8.984;2023-02-25T08:44:09;2.20;99.90
9371;DHT22;4725;48.384;8.984;2023-02-25T08:46:36;2.40;99.90
9371;DHT22;4725;48.384;8.984;2023-02-25T08:49:04;2.80;99.90
9371;DHT22;4725;48.384;8.984;2023-02-25T08:51:32;2.80;99.90
9371;DHT22;4725;48.384;8.984;2023-02-25T08:54:00;2.80;99.90
9371;DHT22;4725;48.384;8.984;2023-02-25T08:56:28;2.80;99.90
9371;DHT22;4725;48.384;8.984;2023-02-25T08:58:57;2.90;99.90
9371;DHT22;4725;48.384;8.984;2023-02-25T09:01:24;2.90;99.90
9371;DHT22;4725;48.384;8.984;2023-02-25T09:03:51;3.00;99.90
9371;DHT22;4725;48.384;8.984;2023-02-25T09:06:19;2.90;99.90
9371;DHT22;4725;48.384;8.984;2023-02-25T09:08:46;2.80;99.90
9371;DHT22;4725;48.384;8.984;2023-02-25T09:11:14;3.00;99.90
9371;DHT22;4725;48.384;8.984;2023-02-25T09:13:41;3.00;99.90
9371;DHT22;4725;48.384;8.984;2023-02-25T09:16:09;2.80;99.90
9371;DHT22;4725;48.384;8.984;2023-02-25T09:18:40;2.80;99.90
9371;DHT22;4725;48.384;8.984;2023-02-25T09:21:07;2.80;99.90
9371;DHT22;4725;48.384;8.984;2023-02-25T09:23:35;2.80;99.90
9371;DHT22;4725;48.384;8.984;2023-02-25T09:26:02;2.80;99.90
9371;DHT22;4725;48.384;8.984;2023-02-25T09:28:29;2.90;99.90
9371;DHT22;4725;48.384;8.984;2023-02-25T09:30:57;2.90;99.90
9371;DHT22;4725;48.384;8.984;2023-02-25T09:33:25;2.90;99.90
9371;DHT22;4725;48.384;8.984;2023-02-25T09:35:52;2.80;99.90
9371;DHT22;4725;48.384;8.984;2023-02-25T09:38:19;2.60;99.90
9371;DHT22;4725;48.384;8.984;2023-02-25T09:40:47;2.60;99.90
9371;DHT22;4725;48.384;8.984;2023-02-25T09:43:20;2.60;99.90
9371;DHT22;4725;48.384;8.984;2023-02-25T09:45:52;2.50;99.90
9371;DHT22;4725;48.384;8.984;2023-02-25T09:48:25;2.40;99.90
9371;DHT22;4725;48.384;8.984;2023-02-25T09:50:56;2.20;99.90
9371;DHT22;4725;48.384;8.984;2023-02-25T09:53:31;2.20;99.90
9371;DHT22;4725;48.384;8.984;2023-02-25T09:56:00;2.10;99.90
9371;DHT22;4725;48.384;8.984;2023-02-25T10:03:49;2.10;99.90
9371;DHT22;4725;48.384;8.984;2023-02-25T10:06:23;2.20;99.90
9371;DHT22;4725;48.384;8.984;2023-02-25T10:08:59;2.20;99.90
9371;DHT22;4725;48.384;8.984;2023-02-25T10:11:37;3.40;99.90
9371;DHT22;4725;48.384;8.984;2023-02-25T10:14:18;2.20;99.90
9371;DHT22;4725;48.384;8.984;2023-02-25T10:16:55;2.40;99.90
9371;DHT22;4725;48.384;8.984;2023-02-25T10:19:42;2.60;99.90
9371;DHT22;4725;48.384;8.984;2023-02-25T10:22:24;2.90;99.90
9371;DHT22;4725;48.384;8.984;2023-02-25T10:24:57;2.90;99.90
9371;DHT22;4725;48.384;8.984;2023-02-25T10:27:27;3.00;99.90
9371;DHT22;4725;48.384;8.984;2023-02-25T10:29:58;3.60;99.90
9371;DHT22;4725;48.384;8.984;2023-02-25T10:32:30;3.60;99.90
9371;DHT22;4725;48.384;8.984;2023-02-25T10:35:10;3.90;99.90
9371;DHT22;4725;48.384;8.984;2023-02-25T10:37:37;4.10;99.90
9371;DHT22;4725;48.384;8.984;2023-02-25T10:40:07;4.50;99.90
9371;DHT22;4725;48.384;8.984;2023-02-25T10:42:39;4.60;99.90
9371;DHT22;4725;48.384;8.984;2023-02-25T10:45:09;4.50;99.90
9371;DHT22;4725;48.384;8.984;2023-02-25T10:47:40;4.70;99.90
9371;DHT22;4725;48.384;8.984;2023-02-25T10:50:19;4.80;99.90
9371;DHT22;4725;48.384;8.984;2023-02-25T10:52:58;5.10;99.90
9371;DHT22;4725;48.384;8.984;2023-02-25T10:55:49;5.40;99.90
9371;DHT22;4725;48.384;8.984;2023-02-25T10:58:24;5.50;99.90
9371;DHT22;4725;48.384;8.984;2023-02-25T11:00:56;5.00;99.90
9371;DHT22;4725;48.384;8.984;2023-02-25T11:03:24;5.00;99.90
9371;DHT22;4725;48.384;8.984;2023-02-25T11:06:07;5.00;99.90
9371;DHT22;4725;48.384;8.984;2023-02-25T11:11:04;5.40;99.90
9371;DHT22;4725;48.384;8.984;2023-02-25T11:16:07;5.40;99.90
9371;DHT22;4725;48.384;8.984;2023-02-25T11:18:34;5.40;99.90
9371;DHT22;4725;48.384;8.984;2023-02-25T11:21:06;5.10;99.90
9371;DHT22;4725;48.384;8.984;2023-02-25T11:28:34;4.40;99.90
9371;DHT22;4725;48.384;8.984;2023-02-25T11:33:39;4.50;99.90
9371;DHT22;4725;48.384;8.984;2023-02-25T11:38:38;4.40;99.90
9371;DHT22;4725;48.384;8.984;2023-02-25T11:41:15;4.40;99.90
9371;DHT22;4725;48.384;8.984;2023-02-25T11:46:16;4.40;99.90
9371;DHT22;4725;48.384;8.984;2023-02-25T11:48:48;4.60;99.90
9371;DHT22;4725;48.384;8.984;2023-02-25T11:51:23;4.70;99.90
9371;DHT22;4725;48.384;8.984;2023-02-25T11:54:05;4.80;99.90
9371;DHT22;4725;48.384;8.984;2023-02-25T11:56:35;4.80;99.90
9371;DHT22;4725;48.384;8.984;2023-02-25T11:59:16;4.80;99.90
9371;DHT22;4725;48.384;8.984;2023-02-25T12:02:23;4.90;99.90
9371;DHT22;4725;48.384;8.984;2023-02-25T12:16:47;4.40;99.90
9371;DHT22;4725;48.384;8.984;2023-02-25T12:25:41;4.20;99.90
9371;DHT22;4725;48.384;8.984;2023-02-25T12:31:11;4.60;99.90
9371;DHT22;4725;48.384;8.984;2023-02-25T12:34:09;4.80;99.90
9371;DHT22;4725;48.384;8.984;2023-02-25T12:36:52;5.70;99.90
9371;DHT22;4725;48.384;8.984;2023-02-25T12:39:42;6.70;99.90
9371;DHT22;4725;48.384;8.984;2023-02-25T12:42:22;7.40;99.90
9371;DHT22;4725;48.384;8.984;2023-02-25T12:45:08;7.50;99.90
9371;DHT22;4725;48.384;8.984;2023-02-25T12:47:54;7.30;99.90
9371;DHT22;4725;48.384;8.984;2023-02-25T12:50:44;6.70;99.90
9371;DHT22;4725;48.384;8.984;2023-02-25T12:53:28;6.10;99.90
9371;DHT22;4725;48.384;8.984;2023-02-25T12:59:18;6.00;99.90
9371;DHT22;4725;48.384;8.984;2023-02-25T13:01:58;6.40;99.90
9371;DHT22;4725;48.384;8.984;2023-02-25T13:10:40;6.20;99.90
9371;DHT22;4725;48.384;8.984;2023-02-25T13:13:46;6.20;99.90
9371;DHT22;4725;48.384;8.984;2023-02-25T13:16:26;6.10;99.90
9371;DHT22;4725;48.384;8.984;2023-02-25T13:19:32;6.00;99.90
9371;DHT22;4725;48.384;8.984;2023-02-25T13:22:12;6.00;99.90
9371;DHT22;4725;48.384;8.984;2023-02-25T13:24:47;6.00;99.90
9371;DHT22;4725;48.384;8.984;2023-02-25T13:27:34;6.30;99.90
9371;DHT22;4725;48.384;8.984;2023-02-25T13:36:07;7.50;99.90
9371;DHT22;4725;48.384;8.984;2023-02-25T13:39:06;8.00;99.90
9371;DHT22;4725;48.384;8.984;2023-02-25T13:41:50;8.30;99.90
9371;DHT22;4725;48.384;8.984;2023-02-25T13:44:35;8.00;99.80
9371;DHT22;4725;48.384;8.984;2023-02-25T13:47:31;7.40;99.90
9371;DHT22;4725;48.384;8.984;2023-02-25T13:53:21;8.20;99.60
9371;DHT22;4725;48.384;8.984;2023-02-25T13:56:18;9.40;97.90
9371;DHT22;4725;48.384;8.984;2023-02-25T13:58:59;10.00;96.90
9371;DHT22;4725;48.384;8.984;2023-02-25T14:01:34;11.20;95.50
9371;DHT22;4725;48.384;8.984;2023-02-25T14:04:30;11.80;93.70
9371;DHT22;4725;48.384;8.984;2023-02-25T14:07:20;10.80;95.10
9371;DHT22;4725;48.384;8.984;2023-02-25T14:10:09;9.20;96.60
9371;DHT22;4725;48.384;8.984;2023-02-25T14:12:47;8.40;97.40
9371;DHT22;4725;48.384;8.984;2023-02-25T14:15:27;7.80;98.10
9371;DHT22;4725;48.384;8.984;2023-02-25T14:18:10;7.60;98.90
9371;DHT22;4725;48.384;8.984;2023-02-25T14:20:48;7.00;98.80
9371;DHT22;4725;48.384;8.984;2023-02-25T14:23:27;6.40;99.90
9371;DHT22;4725;48.384;8.984;2023-02-25T14:26:19;6.30;99.90
9371;DHT22;4725;48.384;8.984;2023-02-25T14:29:04;6.10;99.90
9371;DHT22;4725;48.384;8.984;2023-02-25T14:31:47;6.00;99.90
9371;DHT22;4725;48.384;8.984;2023-02-25T14:37:12;5.50;99.90
9371;DHT22;4725;48.384;8.984;2023-02-25T14:40:00;5.40;99.90
9371;DHT22;4725;48.384;8.984;2023-02-25T14:42:46;5.30;99.90
9371;DHT22;4725;48.384;8.984;2023-02-25T14:45:20;5.20;99.90
9371;DHT22;4725;48.384;8.984;2023-02-25T14:47:54;5.00;99.90
9371;DHT22;4725;48.384;8.984;2023-02-25T14:50:26;4.80;99.90
9371;DHT22;4725;48.384;8.984;2023-02-25T15:02:16;4.30;99.90
9371;DHT22;4725;48.384;8.984;2023-02-25T15:05:37;4.30;99.90
9371;DHT22;4725;48.384;8.984;2023-02-25T15:08:30;4.10;99.90
9371;DHT22;4725;48.384;8.984;2023-02-25T15:11:23;4.10;99.90
9371;DHT22;4725;48.384;8.984;2023-02-25T15:20:21;4.00;99.90
9371;DHT22;4725;48.384;8.984;2023-02-25T15:23:06;4.00;99.90
9371;DHT22;4725;48.384;8.984;2023-02-25T15:28:35;4.00;99.90
9371;DHT22;4725;48.384;8.984;2023-02-25T15:31:09;4.00;99.90
9371;DHT22;4725;48.384;8.984;2023-02-25T15:38:57;4.20;99.90
9371;DHT22;4725;48.384;8.984;2023-02-25T15:41:57;4.30;99.90
9371;DHT22;4725;48.384;8.984;2023-02-25T15:47:27;4.30;99.90
9371;DHT22;4725;48.384;8.984;2023-02-25T15:52:54;4.20;99.90
9371;DHT22;4725;48.384;8.984;2023-02-25T15:55:39;4.20;99.90
9371;DHT22;4725;48.384;8.984;2023-02-25T15:58:40;4.20;99.90
9371;DHT22;4725;48.384;8.984;2023-02-25T16:01:41;4.10;99.90
9371;DHT22;4725;48.384;8.984;2023-02-25T16:07:30;3.90;99.90
9371;DHT22;4725;48.384;8.984;2023-02-25T16:10:00;3.90;99.90
9371;DHT22;4725;48.384;8.984;2023-02-25T16:12:30;3.90;99.90
9371;DHT22;4725;48.384;8.984;2023-02-25T16:14:58;3.90;99.90
9371;DHT22;4725;48.384;8.984;2023-02-25T16:19:58;3.80;99.90
9371;DHT22;4725;48.384;8.984;2023-02-25T16:22:27;3.80;99.90
9371;DHT22;4725;48.384;8.984;2023-02-25T16:24:57;3.70;99.90
9371;DHT22;4725;48.384;8.984;2023-02-25T16:27:38;3.60;99.90
9371;DHT22;4725;48.384;8.984;2023-02-25T16:30:14;3.50;99.90
9371;DHT22;4725;48.384;8.984;2023-02-25T16:32:48;3.40;99.90
9371;DHT22;4725;48.384;8.984;2023-02-25T16:35:24;3.40;99.90
9371;DHT22;4725;48.384;8.984;2023-02-25T16:37:59;3.40;99.90
9371;DHT22;4725;48.384;8.984;2023-02-25T16:40:30;3.30;99.90
9371;DHT22;4725;48.384;8.984;2023-02-25T16:45:30;3.30;99.90
9371;DHT22;4725;48.384;8.984;2023-02-25T16:48:00;3.30;99.90
9371;DHT22;4725;48.384;8.984;2023-02-25T16:55:29;3.30;99.90
9371;DHT22;4725;48.384;8.984;2023-02-25T16:58:06;3.30;99.90
9371;DHT22;4725;48.384;8.984;2023-02-25T17:00:34;3.20;99.90
9371;DHT22;4725;48.384;8.984;2023-02-25T17:03:03;3.20;99.90
9371;DHT22;4725;48.384;8.984;2023-02-25T17:05:33;3.20;99.90
9371;DHT22;4725;48.384;8.984;2023-02-25T17:08:04;3.00;99.90
9371;DHT22;4725;48.384;8.984;2023-02-25T17:10:33;3.00;99.90
9371;DHT22;4725;48.384;8.984;2023-02-25T17:15:34;2.90;99.90
9371;DHT22;4725;48.384;8.984;2023-02-25T17:18:06;2.90;99.90
9371;DHT22;4725;48.384;8.984;2023-02-25T17:20:34;2.80;99.90
9371;DHT22;4725;48.384;8.984;2023-02-25T17:23:04;2.80;99.90
9371;DHT22;4725;48.384;8.984;2023-02-25T17:25:36;2.70;99.90
9371;DHT22;4725;48.384;8.984;2023-02-25T17:28:06;2.60;99.90
9371;DHT22;4725;48.384;8.984;2023-02-25T17:30:39;2.50;99.90
9371;DHT22;4725;48.384;8.984;2023-02-25T17:35:47;2.60;99.90
9371;DHT22;4725;48.384;8.984;2023-02-25T17:38:17;2.60;99.90
9371;DHT22;4725;48.384;8.984;2023-02-25T17:40:45;2.60;99.90
9371;DHT22;4725;48.384;8.984;2023-02-25T17:43:19;2.80;99.90
9371;DHT22;4725;48.384;8.984;2023-02-25T17:45:57;2.60;99.90
9371;DHT22;4725;48.384;8.984;2023-02-25T17:50:58;2.60;99.90
9371;DHT22;4725;48.384;8.984;2023-02-25T17:53:39;2.60;99.90
9371;DHT22;4725;48.384;8.984;2023-02-25T17:56:14;2.50;99.90
9371;DHT22;4725;48.384;8.984;2023-02-25T18:01:25;2.40;99.90
9371;DHT22;4725;48.384;8.984;2023-02-25T18:09:07;2.40;99.90
9371;DHT22;4725;48.384;8.984;2023-02-25T18:11:54;2.50;99.90
9371;DHT22;4725;48.384;8.984;2023-02-25T18:14:30;2.50;99.90
9371;DHT22;4725;48.384;8.984;2023-02-25T18:19:36;2.60;99.90
9371;DHT22;4725;48.384;8.984;2023-02-25T18:22:05;2.70;99.90
9371;DHT22;4725;48.384;8.984;2023-02-25T18:24:35;2.60;99.90
9371;DHT22;4725;48.384;8.984;2023-02-25T18:27:17;2.70;99.90
9371;DHT22;4725;48.384;8.984;2023-02-25T18:29:46;2.60;99.90
9371;DHT22;4725;48.384;8.984;2023-02-25T18:32:14;2.70;99.90
9371;DHT22;4725;48.384;8.984;2023-02-25T18:34:41;2.70;99.90
9371;DHT22;4725;48.384;8.984;2023-02-25T18:37:13;2.60;99.90
9371;DHT22;4725;48.384;8.984;2023-02-25T18:39:42;2.60;99.90
9371;DHT22;4725;48.384;8.984;2023-02-25T18:44:42;1.80;99.90
9371;DHT22;4725;48.384;8.984;2023-02-25T18:47:11;1.50;99.90
9371;DHT22;4725;48.384;8.984;2023-02-25T18:49:38;1.40;99.90
9371;DHT22;4725;48.384;8.984;2023-02-25T18:52:12;1.20;99.90
9371;DHT22;4725;48.384;8.984;2023-02-25T18:57:18;1.00;99.90
9371;DHT22;4725;48.384;8.984;2023-02-25T18:59:46;0.90;99.90
9371;DHT22;4725;48.384;8.984;2023-02-25T19:02:23;0.80;99.90
9371;DHT22;4725;48.384;8.984;2023-02-25T19:04:51;0.80;99.90
9371;DHT22;4725;48.384;8.984;2023-02-25T19:07:22;0.90;99.90
9371;DHT22;4725;48.384;8.984;2023-02-25T19:09:49;0.70;99.90
9371;DHT22;4725;48.384;8.984;2023-02-25T19:12:17;0.70;99.90
9371;DHT22;4725;48.384;8.984;2023-02-25T19:14:45;0.70;99.90
9371;DHT22;4725;48.384;8.984;2023-02-25T19:17:14;0.70;99.90